createdAt,value
2018-04-13T00:01:01.248Z,7.55
2018-04-13T00:03:29.078Z,8.05
2018-04-13T00:05:58.010Z,7.50
2018-04-13T00:08:26.059Z,9.07
2018-04-13T00:10:54.675Z,7.28
2018-04-13T00:13:28.711Z,8.45
2018-04-13T00:15:56.203Z,8.88
2018-04-13T00:18:24.609Z,7.43
2018-04-13T00:20:58.119Z,8.75
2018-04-13T00:23:31.593Z,7.05
2018-04-13T00:26:04.955Z,8.52
2018-04-13T00:28:32.710Z,7.70
2018-04-13T00:31:01.048Z,8.38
2018-04-13T00:33:29.213Z,6.80
2018-04-13T00:36:02.558Z,7.97
2018-04-13T00:38:31.046Z,7.28
2018-04-13T00:41:04.261Z,8.15
2018-04-13T00:43:33.475Z,6.70
2018-04-13T00:46:07.054Z,8.55
2018-04-13T00:48:41.370Z,7.60
2018-04-13T00:51:11.454Z,6.82
2018-04-13T00:53:39.221Z,7.78
2018-04-13T00:56:08.363Z,8.52
2018-04-13T00:58:42.551Z,7.18
2018-04-13T01:01:16.063Z,7.65
2018-04-13T01:03:56.073Z,6.68
2018-04-13T01:06:23.693Z,7.57
2018-04-13T01:08:56.996Z,6.22
2018-04-13T01:14:01.701Z,5.97
2018-04-13T01:16:29.910Z,6.75
2018-04-13T01:18:58.135Z,6.10
2018-04-13T01:21:50.148Z,5.95
2018-04-13T01:24:24.275Z,5.90
2018-04-13T01:26:52.321Z,6.32
2018-04-13T01:29:20.021Z,5.82
2018-04-13T01:32:06.773Z,6.15
2018-04-13T01:34:35.802Z,5.32
2018-04-13T01:37:03.613Z,5.90
2018-04-13T01:39:37.491Z,5.43
2018-04-13T01:42:05.267Z,6.15
2018-04-13T01:44:38.621Z,4.93
2018-04-13T01:47:07.205Z,5.30
2018-04-13T01:49:34.663Z,5.22
2018-04-13T01:52:07.608Z,5.55
2018-04-13T01:54:40.748Z,6.10
2018-04-13T01:57:08.221Z,5.07
2018-04-13T01:59:41.643Z,5.10
2018-04-13T02:02:09.369Z,5.30
2018-04-13T02:04:36.861Z,6.10
2018-04-13T02:07:16.149Z,5.07
2018-04-13T02:09:43.655Z,5.55
2018-04-13T02:12:17.047Z,5.12
2018-04-13T02:14:44.811Z,5.30
2018-04-13T02:17:12.297Z,4.60
2018-04-13T02:19:39.754Z,5.45
2018-04-13T02:22:13.137Z,5.40
2018-04-13T02:24:40.672Z,5.20
2018-04-13T02:27:08.378Z,5.35
2018-04-13T02:29:35.972Z,4.90
2018-04-13T02:32:03.414Z,6.65
2018-04-13T02:34:42.271Z,5.30
2018-04-13T02:37:09.735Z,5.12
2018-04-13T02:39:42.938Z,4.22
2018-04-13T02:42:10.423Z,5.50
2018-04-13T02:44:44.634Z,5.70
2018-04-13T02:47:12.336Z,5.87
2018-04-13T02:49:45.275Z,5.57
2018-04-13T02:52:13.453Z,4.90
2018-04-13T02:54:40.902Z,5.35
2018-04-13T02:57:10.928Z,4.82
2018-04-13T02:59:38.385Z,5.78
2018-04-13T03:02:05.855Z,4.95
2018-04-13T03:04:38.856Z,5.95
2018-04-13T03:07:06.575Z,4.50
2018-04-13T03:09:40.443Z,5.40
2018-04-13T03:12:07.981Z,5.25
2018-04-13T03:14:42.290Z,5.43
2018-04-13T03:17:11.214Z,4.85
2018-04-13T03:19:50.539Z,5.03
2018-04-13T03:22:23.440Z,5.20
2018-04-13T03:24:56.594Z,4.70
2018-04-13T03:27:24.125Z,4.90
2018-04-13T03:29:53.083Z,5.35
2018-04-13T03:38:15.830Z,6.25
2018-04-13T03:40:43.870Z,5.30
2018-04-13T03:43:18.432Z,5.70
2018-04-13T03:45:46.009Z,4.93
2018-04-13T03:48:13.527Z,5.40
2018-04-13T03:50:41.041Z,4.65
2018-04-13T03:53:14.399Z,6.18
2018-04-13T03:55:43.091Z,5.15
2018-04-13T03:58:10.945Z,5.97
2018-04-13T04:00:39.312Z,6.32
2018-04-13T04:03:06.798Z,6.20
2018-04-13T04:05:34.371Z,5.55
2018-04-13T04:08:07.600Z,5.45
2018-04-13T04:10:51.332Z,5.90
2018-04-13T04:13:18.828Z,5.63
2018-04-13T04:15:52.254Z,6.18
2018-04-13T04:18:19.791Z,5.27
2018-04-13T04:20:59.080Z,5.20
2018-04-13T04:23:38.136Z,5.68
2018-04-13T04:26:22.176Z,5.03
2018-04-13T04:29:06.026Z,5.70
2018-04-13T04:34:25.937Z,5.80
2018-04-13T04:36:54.272Z,5.57
2018-04-13T04:39:21.853Z,5.43
2018-04-13T04:41:51.584Z,5.00
2018-04-13T04:44:19.966Z,7.37
2018-04-13T04:46:53.343Z,5.20
2018-04-13T04:49:20.816Z,6.67
2018-04-13T05:00:31.413Z,4.93
2018-04-13T05:03:08.701Z,5.40
2018-04-13T05:05:36.231Z,5.50
2018-04-13T05:08:10.407Z,5.57
2018-04-13T05:10:38.923Z,4.60
2018-04-13T05:13:07.652Z,6.47
2018-04-13T05:15:36.315Z,5.57
2018-04-13T05:18:04.171Z,6.07
2018-04-13T05:20:32.034Z,5.93
2018-04-13T05:23:04.535Z,5.47
2018-04-13T05:25:37.972Z,5.10
2018-04-13T05:28:06.466Z,5.57
2018-04-13T05:30:34.751Z,4.82
2018-04-13T05:33:02.395Z,5.78
2018-04-13T05:35:30.926Z,6.60
2018-04-13T05:37:58.638Z,6.20
2018-04-13T05:40:26.081Z,5.87
2018-04-13T05:42:59.362Z,5.35
2018-04-13T05:45:26.909Z,6.82
2018-04-13T05:47:54.434Z,5.32
2018-04-13T05:50:33.813Z,5.93
2018-04-13T05:56:03.572Z,6.23
2018-04-13T05:58:31.042Z,4.90
2018-04-13T06:00:58.748Z,6.73
2018-04-13T06:03:31.674Z,5.90
2018-04-13T06:06:05.572Z,6.50
2018-04-13T06:08:33.167Z,8.68
2018-04-13T06:11:00.673Z,6.27
2018-04-13T06:13:28.321Z,6.35
2018-04-13T06:15:55.838Z,6.10
2018-04-13T06:18:29.332Z,6.60
2018-04-13T06:21:02.717Z,5.90
2018-04-13T06:23:30.253Z,7.18
2018-04-13T06:25:57.709Z,6.50
2018-04-13T06:28:25.257Z,6.67
2018-04-13T06:30:52.892Z,6.37
2018-04-13T06:33:26.221Z,6.28
2018-04-13T06:35:53.735Z,5.75
2018-04-13T06:38:21.183Z,6.90
2018-04-13T06:40:48.652Z,5.90
2018-04-13T06:43:21.695Z,6.95
2018-04-13T06:45:49.267Z,6.07
2018-04-13T06:48:28.391Z,6.85
2018-04-13T06:50:55.877Z,5.53
2018-04-13T06:53:23.371Z,7.18
2018-04-13T06:55:50.877Z,6.35
2018-04-13T06:58:18.361Z,7.10
2018-04-13T07:00:45.869Z,6.37
2018-04-13T07:03:19.100Z,6.35
2018-04-13T07:05:52.463Z,6.60
2018-04-13T07:08:20.010Z,6.60
2018-04-13T07:10:53.220Z,6.65
2018-04-13T07:13:20.721Z,7.20
2018-04-13T07:15:54.136Z,6.62
2018-04-13T07:18:21.668Z,7.37
2018-04-13T07:20:55.201Z,6.53
2018-04-13T07:23:22.643Z,6.95
2018-04-13T07:25:50.212Z,7.30
2018-04-13T07:28:17.679Z,7.32
2018-04-13T07:30:45.173Z,6.57
2018-04-13T07:33:13.241Z,6.68
2018-04-13T07:35:45.659Z,6.07
2018-04-13T07:38:13.217Z,6.97
2018-04-13T07:40:41.030Z,5.72
2018-04-13T07:43:14.221Z,7.75
2018-04-13T07:45:47.624Z,6.35
2018-04-13T07:48:15.056Z,7.30
2018-04-13T07:50:43.543Z,6.65
2018-04-13T07:53:11.214Z,7.57
2018-04-13T07:55:38.723Z,6.60
2018-04-13T07:58:17.856Z,6.90
2018-04-13T08:00:45.821Z,6.80
2018-04-13T08:03:12.846Z,6.72
2018-04-13T08:05:46.034Z,6.60
2018-04-13T08:08:13.544Z,8.43
2018-04-13T08:10:41.007Z,6.07
2018-04-13T08:13:14.561Z,7.15
2018-04-13T08:15:47.768Z,6.50
2018-04-13T08:18:15.246Z,7.30
2018-04-13T08:20:42.756Z,5.78
2018-04-13T08:23:10.361Z,7.45
2018-04-13T08:25:37.861Z,7.45
2018-04-13T08:28:05.429Z,7.32
2018-04-13T08:30:33.124Z,6.47
2018-04-13T08:35:59.215Z,6.43
2018-04-13T08:38:32.290Z,8.18
2018-04-13T08:40:59.923Z,7.75
2018-04-13T08:43:27.345Z,9.32
2018-04-13T08:45:54.900Z,7.15
2018-04-13T08:48:22.467Z,7.53
2018-04-13T08:50:50.209Z,6.97
2018-04-13T08:53:17.712Z,8.02
2018-04-13T08:55:50.850Z,8.02
2018-04-13T08:58:18.368Z,8.40
2018-04-13T09:00:52.315Z,7.57
2018-04-13T09:03:19.878Z,7.82
2018-04-13T09:05:47.499Z,7.50
2018-04-13T09:08:15.030Z,8.63
2018-04-13T09:10:48.394Z,7.50
2018-04-13T09:13:15.948Z,7.70
2018-04-13T09:15:43.514Z,7.50
2018-04-13T09:18:16.906Z,7.10
2018-04-13T09:20:44.445Z,7.55
2018-04-13T09:23:11.938Z,6.90
2018-04-13T09:25:39.373Z,8.10
2018-04-13T09:28:06.855Z,7.50
2018-04-13T09:30:52.749Z,7.25
2018-04-13T09:33:20.249Z,7.10
2018-04-13T09:35:47.805Z,6.97
2018-04-13T09:38:15.347Z,7.15
2018-04-13T09:40:42.831Z,7.50
2018-04-13T09:43:15.233Z,6.70
2018-04-13T09:45:54.577Z,6.70
2018-04-13T09:48:22.050Z,6.32
2018-04-13T09:50:49.519Z,7.28
2018-04-13T09:53:22.657Z,6.18
2018-04-13T09:55:55.993Z,6.28
2018-04-13T09:58:23.449Z,5.90
2018-04-13T10:00:56.529Z,5.47
2018-04-13T10:03:35.423Z,5.57
2018-04-13T10:06:02.899Z,5.40
2018-04-13T10:08:30.357Z,5.20
2018-04-13T10:11:03.657Z,5.55
2018-04-13T10:13:36.939Z,5.45
2018-04-13T10:16:04.485Z,5.28
2018-04-13T10:18:32.007Z,5.40
2018-04-13T10:20:59.499Z,5.53
2018-04-13T10:23:26.993Z,6.50
2018-04-13T10:26:00.203Z,6.03
2018-04-13T10:28:33.281Z,5.37
2018-04-13T10:31:06.635Z,5.80
2018-04-13T10:33:40.080Z,6.82
2018-04-13T10:36:07.549Z,6.70
2018-04-13T10:38:35.059Z,8.70
2018-04-13T10:41:08.187Z,6.70
2018-04-13T10:43:35.735Z,6.50
2018-04-13T10:46:09.217Z,6.85
2018-04-13T10:48:42.451Z,8.35
2018-04-13T10:51:10.076Z,6.75
2018-04-13T10:53:43.151Z,6.57
2018-04-13T10:56:10.650Z,6.57
2018-04-13T10:58:38.133Z,6.82
2018-04-13T11:01:05.847Z,6.75
2018-04-13T11:03:33.594Z,6.80
2018-04-13T11:06:06.853Z,6.82
2018-04-13T11:08:34.367Z,6.50
2018-04-13T11:11:01.859Z,6.82
2018-04-13T11:13:35.310Z,6.57
2018-04-13T11:16:08.814Z,6.40
2018-04-13T11:18:42.320Z,6.37
2018-04-13T11:21:09.903Z,6.43
2018-04-13T11:23:43.279Z,6.72
2018-04-13T11:26:16.736Z,6.22
2018-04-13T11:28:44.266Z,6.00
2018-04-13T11:31:11.822Z,6.25
2018-04-13T11:33:45.148Z,6.97
2018-04-13T11:36:12.583Z,7.15
2018-04-13T11:38:40.086Z,6.72
2018-04-13T11:41:13.273Z,6.85
2018-04-13T11:43:40.795Z,6.57
2018-04-13T11:46:08.291Z,7.22
2018-04-13T11:48:41.311Z,7.12
2018-04-13T11:51:08.796Z,7.25
2018-04-13T11:53:42.085Z,7.40
2018-04-13T11:56:09.534Z,8.18
2018-04-13T11:58:37.014Z,8.18
2018-04-13T12:01:04.497Z,7.22
2018-04-13T12:03:31.971Z,7.20
2018-04-13T12:05:59.438Z,7.82
2018-04-13T12:08:26.915Z,7.03
2018-04-13T12:10:54.389Z,7.78
2018-04-13T12:13:21.862Z,8.20
2018-04-13T12:15:49.355Z,7.97
2018-04-13T12:18:16.829Z,8.38
2018-04-13T12:20:44.303Z,8.25
2018-04-13T12:23:11.828Z,8.05
2018-04-13T12:25:39.310Z,9.13
2018-04-13T12:28:06.845Z,9.60
2018-04-13T12:30:34.892Z,9.52
2018-04-13T12:33:02.351Z,9.20
2018-04-13T12:35:29.921Z,9.95
2018-04-13T12:37:57.438Z,8.77
2018-04-13T12:40:24.931Z,8.88
2018-04-13T12:42:52.450Z,7.40
2018-04-13T12:45:20.021Z,8.38
2018-04-13T12:47:47.496Z,7.05
2018-04-13T12:50:14.998Z,9.23
2018-04-13T12:52:42.514Z,7.03
2018-04-13T12:55:10.205Z,8.82
2018-04-13T12:57:37.502Z,7.53
2018-04-13T13:00:04.978Z,8.52
2018-04-13T13:02:32.485Z,7.85
2018-04-13T13:05:00.341Z,8.35
2018-04-13T13:07:27.774Z,7.43
2018-04-13T13:09:55.330Z,8.98
2018-04-13T13:12:22.780Z,8.23
2018-04-13T13:14:50.342Z,7.55
2018-04-13T13:17:17.831Z,7.78
2018-04-13T13:19:45.340Z,8.48
2018-04-13T13:27:58.245Z,6.95
2018-04-13T13:30:25.767Z,8.65
2018-04-13T13:32:53.279Z,6.85
2018-04-13T13:35:20.784Z,7.37
2018-04-13T13:37:48.351Z,5.85
2018-04-13T13:40:15.863Z,6.22
2018-04-13T13:42:43.371Z,7.47
2018-04-13T13:45:10.908Z,6.00
2018-04-13T13:47:38.450Z,5.95
2018-04-13T13:50:05.937Z,4.82
2018-04-13T13:52:33.419Z,5.00
2018-04-13T13:55:00.891Z,5.10
2018-04-13T13:57:28.390Z,4.82
2018-04-13T13:59:55.864Z,5.53
2018-04-13T14:02:24.294Z,5.03
2018-04-13T14:04:51.965Z,5.10
2018-04-13T14:07:19.504Z,4.85
2018-04-13T14:09:47.027Z,4.78
2018-04-13T14:12:14.506Z,5.18
2018-04-13T14:14:41.974Z,4.97
2018-04-13T14:17:09.472Z,5.07
2018-04-13T14:19:36.974Z,5.22
2018-04-13T14:22:10.326Z,5.32
2018-04-13T14:24:37.784Z,5.47
2018-04-13T14:27:05.294Z,4.85
2018-04-13T14:29:32.818Z,4.32
2018-04-13T14:32:00.317Z,4.87
2018-04-13T14:34:27.840Z,4.50
2018-04-13T14:36:55.319Z,5.00
2018-04-13T14:39:23.753Z,4.65
2018-04-13T14:41:51.464Z,4.68
2018-04-13T14:44:19.074Z,4.28
2018-04-13T14:46:46.708Z,3.80
2018-04-13T14:49:14.198Z,3.97
2018-04-13T14:51:41.782Z,4.00
2018-04-13T14:54:13.820Z,3.47
2018-04-13T14:56:41.290Z,4.10
2018-04-13T14:59:08.856Z,4.30
2018-04-13T15:01:36.376Z,3.83
2018-04-13T15:04:04.050Z,3.60
2018-04-13T15:06:31.735Z,3.80
2018-04-13T15:08:59.230Z,3.55
2018-04-13T15:11:26.724Z,3.55
2018-04-13T15:13:54.198Z,3.55
2018-04-13T15:16:21.710Z,3.22
2018-04-13T15:18:49.453Z,3.28
2018-04-13T15:21:16.918Z,2.62
2018-04-13T15:23:44.468Z,2.78
2018-04-13T15:26:12.053Z,1.50
2018-04-13T15:28:39.474Z,1.42
2018-04-13T15:31:07.004Z,1.70
2018-04-13T15:33:34.539Z,1.50
2018-04-13T15:36:02.084Z,1.83
2018-04-13T15:38:29.581Z,1.67
2018-04-13T15:40:57.055Z,1.70
2018-04-13T15:43:24.591Z,1.23
2018-04-13T15:45:52.094Z,1.73
2018-04-13T15:48:19.594Z,1.70
2018-04-13T15:50:47.096Z,1.90
2018-04-13T15:53:14.966Z,1.67
2018-04-13T15:55:42.474Z,1.70
2018-04-13T15:58:10.055Z,1.95
2018-04-13T16:00:37.540Z,1.60
2018-04-13T16:03:05.056Z,1.80
2018-04-13T16:05:32.547Z,1.90
2018-04-13T16:08:00.091Z,2.10
2018-04-13T16:10:27.800Z,2.20
2018-04-13T16:12:55.458Z,2.00
2018-04-13T16:15:22.973Z,1.80
2018-04-13T16:17:50.497Z,2.50
2018-04-13T16:20:17.976Z,2.53
2018-04-13T16:22:59.776Z,2.00
2018-04-13T16:25:27.571Z,2.40
2018-04-13T16:27:55.498Z,1.90
2018-04-13T16:30:23.220Z,2.15
2018-04-13T16:32:50.745Z,1.92
2018-04-13T16:35:18.253Z,2.33
2018-04-13T16:37:45.696Z,2.03
2018-04-13T16:40:13.150Z,2.42
2018-04-13T16:45:43.214Z,2.25
2018-04-13T16:48:10.790Z,2.30
2018-04-13T16:50:38.260Z,2.67
2018-04-13T16:53:05.763Z,2.20
2018-04-13T16:55:33.308Z,2.33
2018-04-13T16:58:00.832Z,2.08
2018-04-13T17:00:28.290Z,2.67
2018-04-13T17:02:55.833Z,2.40
2018-04-13T17:05:23.439Z,2.62
2018-04-13T17:07:51.689Z,2.37
2018-04-13T17:10:19.401Z,2.30
2018-04-13T17:12:47.474Z,2.60
2018-04-13T17:15:14.976Z,2.15
2018-04-13T17:17:42.778Z,2.10
2018-04-13T17:20:10.262Z,2.30
2018-04-13T17:22:38.674Z,2.22
2018-04-13T17:25:06.312Z,2.05
2018-04-13T17:27:33.783Z,2.25
2018-04-13T17:30:01.229Z,1.80
2018-04-13T17:32:29.119Z,2.00
2018-04-13T17:34:56.595Z,1.45
2018-04-13T17:37:24.711Z,1.20
2018-04-13T17:39:52.171Z,1.52
2018-04-13T17:42:19.668Z,1.40
2018-04-13T17:44:47.127Z,1.30
2018-04-13T17:47:14.777Z,1.30
2018-04-13T17:49:42.333Z,1.37
2018-04-13T17:52:09.924Z,1.00
2018-04-13T17:54:37.449Z,1.33
2018-04-13T17:57:04.935Z,1.20
2018-04-13T17:59:32.983Z,1.37
2018-04-13T18:02:00.495Z,1.37
2018-04-13T18:04:27.981Z,1.50
2018-04-13T18:06:55.596Z,1.30
2018-04-13T18:09:23.103Z,1.30
2018-04-13T18:12:04.830Z,1.50
2018-04-13T18:14:32.336Z,1.60
2018-04-13T18:16:59.850Z,1.40
2018-04-13T18:19:27.308Z,1.40
2018-04-13T18:21:54.790Z,1.50
2018-04-13T18:24:22.306Z,1.27
2018-04-13T18:26:49.798Z,1.20
2018-04-13T18:29:17.342Z,1.40
2018-04-13T18:31:44.812Z,1.47
2018-04-13T18:34:12.265Z,1.60
2018-04-13T18:36:39.784Z,1.50
2018-04-13T18:39:07.307Z,1.47
2018-04-13T18:41:34.801Z,1.63
2018-04-13T18:44:02.305Z,1.80
2018-04-13T18:46:29.839Z,1.60
2018-04-13T18:48:57.310Z,2.03
2018-04-13T18:51:24.778Z,2.20
2018-04-13T18:53:52.288Z,1.70
2018-04-13T18:56:19.902Z,1.60
2018-04-13T18:58:47.420Z,1.90
2018-04-13T19:01:14.898Z,1.87
2018-04-13T19:03:42.388Z,1.50
2018-04-13T19:06:09.912Z,1.90
2018-04-13T19:08:37.452Z,2.03
2018-04-13T19:11:04.899Z,2.10
2018-04-13T19:13:32.371Z,1.97
2018-04-13T19:15:59.910Z,2.20
2018-04-13T19:18:28.410Z,2.40
2018-04-13T19:20:55.877Z,2.27
2018-04-13T19:23:33.029Z,2.47
2018-04-13T19:26:00.571Z,2.17
2018-04-13T19:28:28.211Z,2.60
2018-04-13T19:30:55.803Z,2.77
2018-04-13T19:33:23.471Z,3.30
2018-04-13T19:35:50.965Z,4.73
2018-04-13T19:38:18.539Z,4.67
2018-04-13T19:40:46.111Z,7.60
2018-04-13T19:43:13.673Z,10.50
2018-04-13T19:45:41.186Z,10.60
2018-04-13T19:48:08.835Z,12.53
2018-04-13T19:50:36.399Z,12.73
2018-04-13T19:53:04.203Z,13.10
2018-04-13T19:55:31.734Z,13.63
2018-04-13T19:57:59.279Z,13.57
2018-04-13T20:00:26.735Z,12.90
2018-04-13T20:02:59.261Z,13.53
2018-04-13T20:05:26.731Z,12.33
2018-04-13T20:07:54.421Z,11.70
2018-04-13T20:10:22.000Z,12.97
2018-04-13T20:12:49.851Z,11.67
2018-04-13T20:15:20.172Z,12.17
2018-04-13T20:17:48.752Z,11.63
2018-04-13T20:20:16.339Z,10.53
2018-04-13T20:22:43.869Z,10.47
2018-04-13T20:25:11.419Z,10.30
2018-04-13T20:27:38.875Z,10.10
2018-04-13T20:30:06.383Z,10.30
2018-04-13T20:32:33.905Z,8.83
2018-04-13T20:35:01.396Z,9.53
2018-04-13T20:37:28.861Z,8.90
2018-04-13T20:39:56.403Z,9.37
2018-04-13T20:42:23.921Z,9.10
2018-04-13T20:44:51.417Z,8.87
2018-04-13T20:47:18.881Z,8.93
2018-04-13T20:49:46.355Z,9.50
2018-04-13T20:52:13.907Z,9.37
2018-04-13T20:54:41.472Z,9.30
2018-04-13T20:57:08.924Z,9.67
2018-04-13T20:59:36.662Z,8.80
2018-04-13T21:02:04.240Z,9.43
2018-04-13T21:04:31.722Z,9.97
2018-04-13T21:06:59.330Z,9.97
2018-04-13T21:09:26.888Z,9.67
2018-04-13T21:11:54.408Z,11.00
2018-04-13T21:14:21.964Z,10.53
2018-04-13T21:16:49.478Z,11.33
2018-04-13T21:19:17.062Z,10.87
2018-04-13T21:21:44.694Z,10.47
2018-04-13T21:24:12.158Z,10.73
2018-04-13T21:26:39.714Z,10.20
2018-04-13T21:29:07.179Z,10.00
2018-04-13T21:31:34.659Z,10.53
2018-04-13T21:34:02.314Z,11.40
2018-04-13T21:36:29.861Z,10.57
2018-04-13T21:38:57.577Z,10.60
2018-04-13T21:41:25.358Z,11.03
2018-04-13T21:43:54.826Z,11.53
2018-04-13T21:48:56.114Z,11.13
2018-04-13T21:51:23.665Z,11.47
2018-04-13T21:53:51.113Z,12.80
2018-04-13T21:56:18.614Z,11.87
2018-04-13T21:58:46.134Z,12.37
2018-04-13T22:01:13.614Z,12.53
2018-04-13T22:03:41.135Z,12.83
2018-04-13T22:06:08.655Z,12.43
2018-04-13T22:08:36.165Z,12.87
2018-04-13T22:11:03.759Z,12.80
2018-04-13T22:13:31.292Z,12.47
2018-04-13T22:15:58.785Z,12.77
2018-04-13T22:18:26.314Z,12.10
2018-04-13T22:20:54.321Z,13.13
2018-04-13T22:23:21.878Z,13.70
2018-04-13T22:25:49.335Z,15.10
2018-04-13T22:28:16.858Z,15.83
2018-04-13T22:30:44.377Z,16.97
2018-04-13T22:33:11.854Z,18.10
2018-04-13T22:35:39.418Z,17.10
2018-04-13T22:38:06.930Z,17.83
2018-04-13T22:40:34.416Z,19.17
2018-04-13T22:43:16.360Z,19.37
2018-04-13T22:45:43.802Z,19.47
2018-04-13T22:48:11.298Z,20.77
2018-04-13T22:50:38.788Z,20.87
2018-04-13T22:53:06.247Z,21.33
2018-04-13T22:55:33.724Z,21.30
2018-04-13T22:58:01.269Z,24.43
2018-04-13T23:00:28.779Z,23.70
2018-04-13T23:02:56.320Z,24.33
2018-04-13T23:05:23.764Z,25.43
2018-04-13T23:07:51.260Z,25.53
2018-04-13T23:10:18.734Z,26.03
2018-04-13T23:12:46.170Z,25.80
2018-04-13T23:15:13.669Z,27.07
2018-04-13T23:17:41.180Z,25.77
2018-04-13T23:20:08.887Z,27.50
2018-04-13T23:22:38.324Z,28.07
2018-04-13T23:25:05.902Z,27.97
2018-04-13T23:27:33.346Z,26.47
2018-04-13T23:30:01.857Z,26.63
2018-04-13T23:32:48.063Z,28.60
2018-04-13T23:35:15.815Z,27.80
2018-04-13T23:37:43.327Z,27.10
2018-04-13T23:40:10.997Z,27.07
2018-04-13T23:42:38.689Z,27.20
2018-04-13T23:45:06.159Z,23.93
2018-04-13T23:47:33.734Z,26.03
2018-04-13T23:50:01.212Z,26.43
2018-04-13T23:52:34.435Z,25.60
2018-04-13T23:55:02.574Z,24.67
2018-04-13T23:57:30.048Z,24.57
2018-04-13T23:59:57.516Z,24.47
